Connaught, Ireland

11:10 AM IST on July 23, 2014 (GMT +0100)
Connaught (EIKN) Elev 663 ft | 53.91 °N, 8.81 °W | Change Station

Current weather conditions updated 10 minutes ago

Fog
Fog
63 °F
Feels Like 63 °F
N
6
Wind Variable Wind from SE

Today is forecast to be nearly the same temperature as yesterday. Showers and thunderstorms.

Today
High -- | Low -- °F
--% Chance of Precip.
Yesterday
High -- | Low -- °F
Precip. -- in
5:34 AM 9:48 PM
Waning Crescent, 11% visible
Pressure 30.15 in
Visibility 0.1 miles
Clouds
Dew Point 63 °F
Humidity 100%
Rainfall 0.00 in
Snow Depth Not available.
UV Not available.
Pollen Not available.
Air Quality Not available.
Flu Activity Not available.
METAR EIKN 231000Z 13005KT 100V170 0150 R27/0125 FG VV001 17/17 Q1021 BECMG 0700

More Conditions Fewer Conditions

Pressure 30.15 in
Visibility 0.1 miles
Clouds
Dew Point 63 °F
Humidity 100%
Rainfall 0.00 in
Snow Depth Not available.
UV Not available.
Pollen Not available.
Air Quality Not available.
Flu Activity Not available.
METAR EIKN 231000Z 13005KT 100V170 0150 R27/0125 FG VV001 17/17 Q1021 BECMG 0700

More Conditions Fewer Conditions

10-Day Weather Forecast

Almanac

Astronomy

Jul. 23, 2014 Rise Set
Actual Time 5:34 AM IST 9:48 PM IST
Civil Twilight 4:46 AM IST 10:35 PM IST
Nautical Twilight 3:36 AM IST 11:44 PM IST
Astronomical Twilight 2:14 AM IST 1:09 AM IST
Moon 2:47 AM IST 7:02 PM IST
Length of Visible Light 17h 48m
Length of Day
16h 13m
Tomorrow will be 3m 4s shorter.
Waning Crescent, 11% of the Moon is Illuminated
Today
Waning Crescent
Jul 26
New
Aug 3
First Quarter
Aug 10
Full
Aug 17
Last Quarter

Yesterday's Extremes

Country Highs Country Lows

Community

WunderPhotos

Upload Photos

1,736,535 photos uploaded!

Nearby

Snow Depth

Not available.

Earthquake Activity

City Distance Mag. Time & Date
No recent earthquake activity has been reported nearby.
Minimum magnitude displayed is 2.5.

Coastal Water Temperatures

Place Temperature
No Stations Reporting

Nearby Weather Stations

Station Location Temp. Heat Index Dew Point Humidity Wind Precip. Elev Updated Type
Palmfield, Ballaghaderreen 66.7 °F - 66 °F 99% SE  at  3.6 mph 0.00 in / hr 509 ft 11:10 AM IST Normal
Derrynacong, Ballyhaunis 67.8 °F - 65 °F 91% ESE  at  2.5 mph 0.00 in / hr 292 ft 11:10 AM IST Rapid Fire
Turlough, Castlebar 71.6 °F 72 °F 65 °F 80% WSW  at  1.6 mph 0.00 in / hr 72 ft 11:08 AM IST Normal

Show More Stations Show Fewer Stations